sensor_id;sensor_type;location;lat;lon;timestamp;P1;durP1;ratioP1;P2;durP2;ratioP2
19965;SDS011;10144;50.874;4.762;2023-02-28T00:03:58;16.57;;;6.60;;
19965;SDS011;10144;50.874;4.762;2023-02-28T00:08:52;17.67;;;7.10;;
19965;SDS011;10144;50.874;4.762;2023-02-28T00:11:21;15.37;;;6.83;;
19965;SDS011;10144;50.874;4.762;2023-02-28T00:16:49;20.93;;;7.13;;
19965;SDS011;10144;50.874;4.762;2023-02-28T00:19:28;18.57;;;7.37;;
19965;SDS011;10144;50.874;4.762;2023-02-28T00:22:09;19.27;;;7.30;;
19965;SDS011;10144;50.874;4.762;2023-02-28T00:24:38;15.93;;;6.67;;
19965;SDS011;10144;50.874;4.762;2023-02-28T00:27:06;13.47;;;6.90;;
19965;SDS011;10144;50.874;4.762;2023-02-28T00:29:35;16.93;;;7.33;;
19965;SDS011;10144;50.874;4.762;2023-02-28T00:32:01;15.93;;;7.10;;
19965;SDS011;10144;50.874;4.762;2023-02-28T00:34:30;14.40;;;6.73;;
19965;SDS011;10144;50.874;4.762;2023-02-28T00:36:59;17.33;;;7.30;;
19965;SDS011;10144;50.874;4.762;2023-02-28T00:41:56;15.73;;;7.27;;
19965;SDS011;10144;50.874;4.762;2023-02-28T00:46:51;14.63;;;7.13;;
19965;SDS011;10144;50.874;4.762;2023-02-28T00:49:22;22.90;;;7.20;;
19965;SDS011;10144;50.874;4.762;2023-02-28T00:51:48;18.83;;;6.93;;
19965;SDS011;10144;50.874;4.762;2023-02-28T00:54:17;15.73;;;6.97;;
19965;SDS011;10144;50.874;4.762;2023-02-28T00:56:45;18.17;;;7.50;;
19965;SDS011;10144;50.874;4.762;2023-02-28T00:59:14;19.67;;;7.70;;
19965;SDS011;10144;50.874;4.762;2023-02-28T01:04:16;12.83;;;6.67;;
19965;SDS011;10144;50.874;4.762;2023-02-28T01:06:42;17.23;;;7.40;;
19965;SDS011;10144;50.874;4.762;2023-02-28T01:09:08;15.60;;;6.70;;
19965;SDS011;10144;50.874;4.762;2023-02-28T01:11:39;14.53;;;7.17;;
19965;SDS011;10144;50.874;4.762;2023-02-28T01:16:39;17.70;;;7.60;;
19965;SDS011;10144;50.874;4.762;2023-02-28T01:19:19;17.60;;;7.20;;
19965;SDS011;10144;50.874;4.762;2023-02-28T01:21:47;16.40;;;7.50;;
19965;SDS011;10144;50.874;4.762;2023-02-28T01:24:16;14.83;;;7.30;;
19965;SDS011;10144;50.874;4.762;2023-02-28T01:26:43;16.10;;;7.17;;
19965;SDS011;10144;50.874;4.762;2023-02-28T01:29:11;20.57;;;7.47;;
19965;SDS011;10144;50.874;4.762;2023-02-28T01:34:07;16.87;;;7.17;;
19965;SDS011;10144;50.874;4.762;2023-02-28T01:39:05;20.30;;;7.47;;
19965;SDS011;10144;50.874;4.762;2023-02-28T01:41:32;18.17;;;7.50;;
19965;SDS011;10144;50.874;4.762;2023-02-28T01:47:15;16.47;;;8.10;;
19965;SDS011;10144;50.874;4.762;2023-02-28T01:49:47;23.40;;;8.47;;
19965;SDS011;10144;50.874;4.762;2023-02-28T01:52:15;17.20;;;8.23;;
19965;SDS011;10144;50.874;4.762;2023-02-28T01:54:42;21.40;;;7.93;;
19965;SDS011;10144;50.874;4.762;2023-02-28T01:57:16;16.20;;;7.80;;
19965;SDS011;10144;50.874;4.762;2023-02-28T02:00:03;18.33;;;7.93;;
19965;SDS011;10144;50.874;4.762;2023-02-28T02:02:40;23.63;;;8.30;;
19965;SDS011;10144;50.874;4.762;2023-02-28T02:05:10;20.43;;;7.80;;
19965;SDS011;10144;50.874;4.762;2023-02-28T02:07:43;17.73;;;7.43;;
19965;SDS011;10144;50.874;4.762;2023-02-28T02:15:30;18.87;;;7.83;;
19965;SDS011;10144;50.874;4.762;2023-02-28T02:18:19;16.93;;;7.47;;
19965;SDS011;10144;50.874;4.762;2023-02-28T02:32:38;22.50;;;9.47;;
19965;SDS011;10144;50.874;4.762;2023-02-28T02:35:19;22.73;;;8.63;;
19965;SDS011;10144;50.874;4.762;2023-02-28T02:38:07;23.33;;;8.97;;
19965;SDS011;10144;50.874;4.762;2023-02-28T02:49:30;18.77;;;8.20;;
19965;SDS011;10144;50.874;4.762;2023-02-28T02:52:01;21.03;;;9.03;;
19965;SDS011;10144;50.874;4.762;2023-02-28T02:54:37;25.20;;;10.10;;
19965;SDS011;10144;50.874;4.762;2023-02-28T03:02:24;23.27;;;8.73;;
19965;SDS011;10144;50.874;4.762;2023-02-28T03:04:58;22.67;;;9.37;;
19965;SDS011;10144;50.874;4.762;2023-02-28T03:09:56;23.10;;;8.60;;
19965;SDS011;10144;50.874;4.762;2023-02-28T03:12:33;24.43;;;9.17;;
19965;SDS011;10144;50.874;4.762;2023-02-28T03:15:17;22.93;;;9.37;;
19965;SDS011;10144;50.874;4.762;2023-02-28T03:21:12;18.53;;;8.50;;
19965;SDS011;10144;50.874;4.762;2023-02-28T03:23:57;22.93;;;8.17;;
19965;SDS011;10144;50.874;4.762;2023-02-28T03:27:06;22.07;;;9.17;;
19965;SDS011;10144;50.874;4.762;2023-02-28T03:29:42;20.43;;;8.90;;
19965;SDS011;10144;50.874;4.762;2023-02-28T03:32:17;19.23;;;8.60;;
19965;SDS011;10144;50.874;4.762;2023-02-28T03:35:16;25.60;;;9.60;;
19965;SDS011;10144;50.874;4.762;2023-02-28T03:37:48;20.57;;;8.67;;
19965;SDS011;10144;50.874;4.762;2023-02-28T03:40:22;25.33;;;9.57;;
19965;SDS011;10144;50.874;4.762;2023-02-28T03:53:35;22.47;;;9.50;;
19965;SDS011;10144;50.874;4.762;2023-02-28T03:57:11;21.30;;;9.00;;
19965;SDS011;10144;50.874;4.762;2023-02-28T04:02:11;21.93;;;10.00;;
19965;SDS011;10144;50.874;4.762;2023-02-28T04:04:38;27.60;;;10.17;;
19965;SDS011;10144;50.874;4.762;2023-02-28T04:07:13;25.53;;;10.27;;
19965;SDS011;10144;50.874;4.762;2023-02-28T04:12:26;30.57;;;10.67;;
19965;SDS011;10144;50.874;4.762;2023-02-28T04:14:51;27.30;;;11.13;;
19965;SDS011;10144;50.874;4.762;2023-02-28T04:17:18;21.87;;;9.70;;
19965;SDS011;10144;50.874;4.762;2023-02-28T04:20:01;23.20;;;10.70;;
19965;SDS011;10144;50.874;4.762;2023-02-28T04:22:37;24.67;;;10.17;;
19965;SDS011;10144;50.874;4.762;2023-02-28T04:27:35;21.50;;;10.37;;
19965;SDS011;10144;50.874;4.762;2023-02-28T04:30:04;26.53;;;11.27;;
19965;SDS011;10144;50.874;4.762;2023-02-28T04:32:36;29.63;;;10.97;;
19965;SDS011;10144;50.874;4.762;2023-02-28T04:35:05;29.17;;;10.60;;
19965;SDS011;10144;50.874;4.762;2023-02-28T04:46:28;26.73;;;11.00;;
19965;SDS011;10144;50.874;4.762;2023-02-28T04:48:57;25.30;;;11.33;;
19965;SDS011;10144;50.874;4.762;2023-02-28T04:51:27;27.57;;;11.50;;
19965;SDS011;10144;50.874;4.762;2023-02-28T05:02:56;29.77;;;11.53;;
19965;SDS011;10144;50.874;4.762;2023-02-28T05:05:21;33.97;;;11.87;;
19965;SDS011;10144;50.874;4.762;2023-02-28T05:07:57;29.13;;;11.63;;
19965;SDS011;10144;50.874;4.762;2023-02-28T05:10:25;28.13;;;11.43;;
19965;SDS011;10144;50.874;4.762;2023-02-28T05:12:54;27.63;;;11.57;;
19965;SDS011;10144;50.874;4.762;2023-02-28T05:15:24;29.27;;;11.43;;
19965;SDS011;10144;50.874;4.762;2023-02-28T05:20:38;32.60;;;12.53;;
19965;SDS011;10144;50.874;4.762;2023-02-28T05:23:16;33.63;;;12.00;;
19965;SDS011;10144;50.874;4.762;2023-02-28T05:25:48;29.63;;;11.30;;
19965;SDS011;10144;50.874;4.762;2023-02-28T05:28:16;30.53;;;11.93;;
19965;SDS011;10144;50.874;4.762;2023-02-28T05:30:45;30.43;;;12.10;;
19965;SDS011;10144;50.874;4.762;2023-02-28T05:33:16;31.93;;;11.87;;
19965;SDS011;10144;50.874;4.762;2023-02-28T05:35:45;28.30;;;11.77;;
19965;SDS011;10144;50.874;4.762;2023-02-28T05:38:13;28.97;;;11.57;;
19965;SDS011;10144;50.874;4.762;2023-02-28T05:40:39;26.83;;;11.80;;
19965;SDS011;10144;50.874;4.762;2023-02-28T05:45:38;26.50;;;11.73;;
19965;SDS011;10144;50.874;4.762;2023-02-28T05:48:10;35.03;;;12.70;;
19965;SDS011;10144;50.874;4.762;2023-02-28T05:50:40;32.90;;;12.77;;
19965;SDS011;10144;50.874;4.762;2023-02-28T05:53:07;28.73;;;12.00;;
19965;SDS011;10144;50.874;4.762;2023-02-28T05:55:36;31.97;;;13.33;;
19965;SDS011;10144;50.874;4.762;2023-02-28T05:58:05;30.40;;;13.27;;
19965;SDS011;10144;50.874;4.762;2023-02-28T06:00:31;31.00;;;13.17;;
19965;SDS011;10144;50.874;4.762;2023-02-28T06:05:30;39.93;;;14.93;;
19965;SDS011;10144;50.874;4.762;2023-02-28T06:07:59;34.77;;;14.53;;
19965;SDS011;10144;50.874;4.762;2023-02-28T06:10:27;36.10;;;13.80;;
19965;SDS011;10144;50.874;4.762;2023-02-28T06:12:54;34.90;;;14.67;;
19965;SDS011;10144;50.874;4.762;2023-02-28T06:15:23;33.17;;;13.80;;
19965;SDS011;10144;50.874;4.762;2023-02-28T06:20:17;37.13;;;14.03;;
19965;SDS011;10144;50.874;4.762;2023-02-28T06:22:44;35.70;;;14.23;;
19965;SDS011;10144;50.874;4.762;2023-02-28T06:27:39;34.43;;;14.07;;
19965;SDS011;10144;50.874;4.762;2023-02-28T06:32:37;37.17;;;13.87;;
19965;SDS011;10144;50.874;4.762;2023-02-28T06:35:07;31.90;;;14.00;;
19965;SDS011;10144;50.874;4.762;2023-02-28T06:40:05;38.13;;;14.00;;
19965;SDS011;10144;50.874;4.762;2023-02-28T06:42:37;37.17;;;15.03;;
19965;SDS011;10144;50.874;4.762;2023-02-28T06:45:03;35.67;;;14.87;;
19965;SDS011;10144;50.874;4.762;2023-02-28T06:47:37;36.27;;;14.60;;
19965;SDS011;10144;50.874;4.762;2023-02-28T06:50:04;29.83;;;12.80;;
19965;SDS011;10144;50.874;4.762;2023-02-28T06:52:31;26.40;;;11.67;;
19965;SDS011;10144;50.874;4.762;2023-02-28T06:54:57;28.07;;;10.73;;
19965;SDS011;10144;50.874;4.762;2023-02-28T06:57:29;25.70;;;9.80;;
19965;SDS011;10144;50.874;4.762;2023-02-28T06:59:59;23.50;;;9.03;;
19965;SDS011;10144;50.874;4.762;2023-02-28T07:02:26;18.17;;;8.67;;
19965;SDS011;10144;50.874;4.762;2023-02-28T07:04:52;17.37;;;8.23;;
19965;SDS011;10144;50.874;4.762;2023-02-28T07:07:18;19.53;;;9.00;;
19965;SDS011;10144;50.874;4.762;2023-02-28T07:09:44;21.13;;;9.07;;
19965;SDS011;10144;50.874;4.762;2023-02-28T07:12:10;17.63;;;8.87;;
19965;SDS011;10144;50.874;4.762;2023-02-28T07:14:36;18.83;;;8.53;;
19965;SDS011;10144;50.874;4.762;2023-02-28T07:17:02;16.60;;;8.27;;
19965;SDS011;10144;50.874;4.762;2023-02-28T07:19:28;16.60;;;8.10;;
19965;SDS011;10144;50.874;4.762;2023-02-28T07:21:57;15.90;;;7.73;;
19965;SDS011;10144;50.874;4.762;2023-02-28T07:24:23;15.77;;;7.47;;
19965;SDS011;10144;50.874;4.762;2023-02-28T07:26:54;16.10;;;7.40;;
19965;SDS011;10144;50.874;4.762;2023-02-28T07:29:20;13.98;;;7.22;;
19965;SDS011;10144;50.874;4.762;2023-02-28T07:31:51;13.30;;;7.55;;
19965;SDS011;10144;50.874;4.762;2023-02-28T07:34:18;19.02;;;7.10;;
19965;SDS011;10144;50.874;4.762;2023-02-28T07:36:44;16.38;;;7.25;;
19965;SDS011;10144;50.874;4.762;2023-02-28T07:39:09;15.73;;;8.13;;
19965;SDS011;10144;50.874;4.762;2023-02-28T07:41:35;16.88;;;8.00;;
19965;SDS011;10144;50.874;4.762;2023-02-28T07:44:08;20.38;;;9.27;;
19965;SDS011;10144;50.874;4.762;2023-02-28T07:46:36;21.02;;;8.90;;
19965;SDS011;10144;50.874;4.762;2023-02-28T07:49:04;21.00;;;9.10;;
19965;SDS011;10144;50.874;4.762;2023-02-28T07:51:30;17.70;;;9.43;;
19965;SDS011;10144;50.874;4.762;2023-02-28T07:53:56;17.13;;;8.65;;
19965;SDS011;10144;50.874;4.762;2023-02-28T07:56:22;17.67;;;7.72;;
19965;SDS011;10144;50.874;4.762;2023-02-28T07:58:49;15.43;;;6.88;;
19965;SDS011;10144;50.874;4.762;2023-02-28T08:01:14;12.15;;;6.50;;
19965;SDS011;10144;50.874;4.762;2023-02-28T08:03:40;16.30;;;7.63;;
19965;SDS011;10144;50.874;4.762;2023-02-28T08:06:07;11.43;;;6.38;;
19965;SDS011;10144;50.874;4.762;2023-02-28T08:08:40;10.00;;;5.80;;
19965;SDS011;10144;50.874;4.762;2023-02-28T08:11:05;12.98;;;5.68;;
19965;SDS011;10144;50.874;4.762;2023-02-28T08:13:31;11.10;;;5.43;;
19965;SDS011;10144;50.874;4.762;2023-02-28T08:15:57;9.70;;;5.30;;
19965;SDS011;10144;50.874;4.762;2023-02-28T08:18:23;37.88;;;7.35;;
19965;SDS011;10144;50.874;4.762;2023-02-28T08:20:48;12.52;;;5.70;;
19965;SDS011;10144;50.874;4.762;2023-02-28T08:23:14;17.92;;;5.95;;
19965;SDS011;10144;50.874;4.762;2023-02-28T08:25:40;11.63;;;5.80;;
19965;SDS011;10144;50.874;4.762;2023-02-28T08:28:05;9.40;;;5.03;;
19965;SDS011;10144;50.874;4.762;2023-02-28T08:30:31;15.25;;;5.03;;
19965;SDS011;10144;50.874;4.762;2023-02-28T08:32:57;10.70;;;4.70;;
19965;SDS011;10144;50.874;4.762;2023-02-28T08:35:22;9.88;;;4.85;;
19965;SDS011;10144;50.874;4.762;2023-02-28T08:37:48;14.90;;;5.25;;
19965;SDS011;10144;50.874;4.762;2023-02-28T08:40:14;9.45;;;5.15;;
19965;SDS011;10144;50.874;4.762;2023-02-28T08:42:44;12.23;;;5.22;;
19965;SDS011;10144;50.874;4.762;2023-02-28T08:45:10;7.63;;;5.05;;
19965;SDS011;10144;50.874;4.762;2023-02-28T08:47:36;9.98;;;5.10;;
19965;SDS011;10144;50.874;4.762;2023-02-28T08:50:02;8.05;;;4.70;;
19965;SDS011;10144;50.874;4.762;2023-02-28T08:52:28;13.00;;;5.35;;
19965;SDS011;10144;50.874;4.762;2023-02-28T08:54:54;9.73;;;4.47;;
19965;SDS011;10144;50.874;4.762;2023-02-28T08:57:20;8.23;;;4.00;;
19965;SDS011;10144;50.874;4.762;2023-02-28T08:59:46;8.60;;;4.07;;
19965;SDS011;10144;50.874;4.762;2023-02-28T09:02:14;11.47;;;5.00;;
19965;SDS011;10144;50.874;4.762;2023-02-28T09:04:40;7.73;;;4.30;;
19965;SDS011;10144;50.874;4.762;2023-02-28T09:07:06;9.50;;;4.20;;
19965;SDS011;10144;50.874;4.762;2023-02-28T09:09:32;7.83;;;4.00;;
19965;SDS011;10144;50.874;4.762;2023-02-28T09:11:58;8.40;;;4.13;;
19965;SDS011;10144;50.874;4.762;2023-02-28T09:14:24;7.38;;;3.83;;
19965;SDS011;10144;50.874;4.762;2023-02-28T09:16:49;10.00;;;4.07;;
19965;SDS011;10144;50.874;4.762;2023-02-28T09:19:15;10.80;;;3.93;;
19965;SDS011;10144;50.874;4.762;2023-02-28T09:21:40;8.00;;;3.60;;
19965;SDS011;10144;50.874;4.762;2023-02-28T09:24:07;5.80;;;3.10;;
19965;SDS011;10144;50.874;4.762;2023-02-28T09:26:33;8.17;;;3.50;;
19965;SDS011;10144;50.874;4.762;2023-02-28T09:28:59;7.73;;;3.87;;
19965;SDS011;10144;50.874;4.762;2023-02-28T09:31:26;6.90;;;3.50;;
19965;SDS011;10144;50.874;4.762;2023-02-28T09:33:54;6.77;;;3.47;;
19965;SDS011;10144;50.874;4.762;2023-02-28T09:36:21;6.43;;;3.20;;
19965;SDS011;10144;50.874;4.762;2023-02-28T09:38:48;11.03;;;3.50;;
19965;SDS011;10144;50.874;4.762;2023-02-28T09:41:17;6.53;;;3.17;;
19965;SDS011;10144;50.874;4.762;2023-02-28T09:43:47;6.53;;;3.27;;
19965;SDS011;10144;50.874;4.762;2023-02-28T09:49:06;9.87;;;3.53;;
19965;SDS011;10144;50.874;4.762;2023-02-28T09:51:51;7.53;;;3.75;;
19965;SDS011;10144;50.874;4.762;2023-02-28T09:54:30;5.53;;;2.90;;
19965;SDS011;10144;50.874;4.762;2023-02-28T09:59:54;6.28;;;3.38;;
19965;SDS011;10144;50.874;4.762;2023-02-28T10:05:04;5.07;;;3.00;;
19965;SDS011;10144;50.874;4.762;2023-02-28T10:10:21;5.65;;;2.58;;
19965;SDS011;10144;50.874;4.762;2023-02-28T10:12:53;8.40;;;3.07;;
19965;SDS011;10144;50.874;4.762;2023-02-28T10:15:21;4.80;;;2.83;;
19965;SDS011;10144;50.874;4.762;2023-02-28T10:17:51;6.10;;;3.10;;
19965;SDS011;10144;50.874;4.762;2023-02-28T10:20:22;6.30;;;3.00;;
19965;SDS011;10144;50.874;4.762;2023-02-28T10:25:39;5.53;;;2.53;;
19965;SDS011;10144;50.874;4.762;2023-02-28T10:30:37;9.50;;;2.93;;
19965;SDS011;10144;50.874;4.762;2023-02-28T10:33:51;7.13;;;2.80;;
19965;SDS011;10144;50.874;4.762;2023-02-28T10:36:02;4.97;;;2.40;;
19965;SDS011;10144;50.874;4.762;2023-02-28T10:38:32;5.10;;;2.40;;
19965;SDS011;10144;50.874;4.762;2023-02-28T10:41:07;7.17;;;2.83;;
19965;SDS011;10144;50.874;4.762;2023-02-28T10:43:35;3.87;;;2.20;;
19965;SDS011;10144;50.874;4.762;2023-02-28T10:46:04;4.57;;;2.60;;
19965;SDS011;10144;50.874;4.762;2023-02-28T10:48:38;6.23;;;2.63;;
19965;SDS011;10144;50.874;4.762;2023-02-28T10:51:22;5.53;;;2.20;;
19965;SDS011;10144;50.874;4.762;2023-02-28T10:53:51;6.03;;;2.80;;
19965;SDS011;10144;50.874;4.762;2023-02-28T10:56:20;5.33;;;2.73;;
19965;SDS011;10144;50.874;4.762;2023-02-28T10:58:57;5.63;;;3.00;;
19965;SDS011;10144;50.874;4.762;2023-02-28T11:03:58;7.53;;;3.37;;
19965;SDS011;10144;50.874;4.762;2023-02-28T11:08:52;3.67;;;2.00;;
19965;SDS011;10144;50.874;4.762;2023-02-28T11:11:20;4.20;;;2.17;;
19965;SDS011;10144;50.874;4.762;2023-02-28T11:13:48;4.80;;;2.57;;
19965;SDS011;10144;50.874;4.762;2023-02-28T11:16:17;4.13;;;2.17;;
19965;SDS011;10144;50.874;4.762;2023-02-28T11:21:21;4.77;;;2.13;;
19965;SDS011;10144;50.874;4.762;2023-02-28T11:24:24;3.97;;;2.40;;
19965;SDS011;10144;50.874;4.762;2023-02-28T11:26:53;5.40;;;2.43;;
19965;SDS011;10144;50.874;4.762;2023-02-28T11:29:21;4.43;;;2.13;;
19965;SDS011;10144;50.874;4.762;2023-02-28T11:32:32;4.37;;;2.27;;
19965;SDS011;10144;50.874;4.762;2023-02-28T11:34:33;4.57;;;2.40;;
19965;SDS011;10144;50.874;4.762;2023-02-28T11:37:00;5.60;;;2.50;;
19965;SDS011;10144;50.874;4.762;2023-02-28T11:39:30;4.80;;;2.57;;
19965;SDS011;10144;50.874;4.762;2023-02-28T12:07:15;6.47;;;2.87;;
19965;SDS011;10144;50.874;4.762;2023-02-28T12:13:09;4.87;;;2.80;;
19965;SDS011;10144;50.874;4.762;2023-02-28T12:18:34;3.83;;;2.43;;
19965;SDS011;10144;50.874;4.762;2023-02-28T12:27:07;4.43;;;2.50;;
19965;SDS011;10144;50.874;4.762;2023-02-28T12:29:44;3.70;;;2.60;;
19965;SDS011;10144;50.874;4.762;2023-02-28T12:35:11;3.93;;;2.40;;
19965;SDS011;10144;50.874;4.762;2023-02-28T12:40:23;4.33;;;2.70;;
19965;SDS011;10144;50.874;4.762;2023-02-28T12:42:52;4.67;;;2.87;;
19965;SDS011;10144;50.874;4.762;2023-02-28T12:45:58;3.90;;;2.43;;
19965;SDS011;10144;50.874;4.762;2023-02-28T12:51:01;5.30;;;2.80;;
19965;SDS011;10144;50.874;4.762;2023-02-28T12:59:10;4.93;;;2.83;;
19965;SDS011;10144;50.874;4.762;2023-02-28T13:10:14;4.90;;;2.70;;
19965;SDS011;10144;50.874;4.762;2023-02-28T13:12:48;4.77;;;2.93;;
19965;SDS011;10144;50.874;4.762;2023-02-28T13:15:19;4.23;;;2.83;;
19965;SDS011;10144;50.874;4.762;2023-02-28T13:17:53;4.30;;;2.83;;
19965;SDS011;10144;50.874;4.762;2023-02-28T13:20:25;6.13;;;2.90;;
19965;SDS011;10144;50.874;4.762;2023-02-28T13:22:54;5.17;;;2.43;;
19965;SDS011;10144;50.874;4.762;2023-02-28T13:27:48;3.73;;;2.10;;
19965;SDS011;10144;50.874;4.762;2023-02-28T13:35:45;5.13;;;2.70;;
19965;SDS011;10144;50.874;4.762;2023-02-28T13:38:22;5.73;;;2.80;;
19965;SDS011;10144;50.874;4.762;2023-02-28T13:40:56;7.67;;;2.53;;
19965;SDS011;10144;50.874;4.762;2023-02-28T13:46:34;8.27;;;3.20;;
19965;SDS011;10144;50.874;4.762;2023-02-28T13:57:59;7.17;;;2.90;;
19965;SDS011;10144;50.874;4.762;2023-02-28T14:01:03;10.37;;;2.67;;
19965;SDS011;10144;50.874;4.762;2023-02-28T14:08:58;9.03;;;3.10;;
19965;SDS011;10144;50.874;4.762;2023-02-28T14:11:36;18.30;;;3.20;;
19965;SDS011;10144;50.874;4.762;2023-02-28T14:14:04;3.97;;;2.27;;
19965;SDS011;10144;50.874;4.762;2023-02-28T14:16:44;7.00;;;3.47;;
19965;SDS011;10144;50.874;4.762;2023-02-28T14:19:28;7.43;;;3.73;;
19965;SDS011;10144;50.874;4.762;2023-02-28T14:22:02;5.80;;;3.30;;
19965;SDS011;10144;50.874;4.762;2023-02-28T14:27:02;7.33;;;3.33;;
19965;SDS011;10144;50.874;4.762;2023-02-28T14:37:38;6.00;;;3.00;;
19965;SDS011;10144;50.874;4.762;2023-02-28T14:40:16;5.43;;;2.80;;
19965;SDS011;10144;50.874;4.762;2023-02-28T14:42:48;7.27;;;3.50;;
19965;SDS011;10144;50.874;4.762;2023-02-28T14:45:21;8.03;;;3.40;;
19965;SDS011;10144;50.874;4.762;2023-02-28T14:47:48;7.17;;;3.23;;
19965;SDS011;10144;50.874;4.762;2023-02-28T14:50:20;5.57;;;2.87;;
19965;SDS011;10144;50.874;4.762;2023-02-28T14:52:50;7.23;;;3.50;;
19965;SDS011;10144;50.874;4.762;2023-02-28T14:55:18;6.07;;;3.67;;
19965;SDS011;10144;50.874;4.762;2023-02-28T14:57:56;6.17;;;3.23;;
19965;SDS011;10144;50.874;4.762;2023-02-28T15:00:32;9.17;;;3.37;;
19965;SDS011;10144;50.874;4.762;2023-02-28T15:03:17;8.33;;;3.20;;
19965;SDS011;10144;50.874;4.762;2023-02-28T15:05:50;6.97;;;3.20;;
19965;SDS011;10144;50.874;4.762;2023-02-28T15:08:19;4.23;;;2.03;;
19965;SDS011;10144;50.874;4.762;2023-02-28T15:13:42;8.53;;;3.80;;
19965;SDS011;10144;50.874;4.762;2023-02-28T15:16:19;5.27;;;2.63;;
19965;SDS011;10144;50.874;4.762;2023-02-28T15:19:00;7.33;;;3.30;;
19965;SDS011;10144;50.874;4.762;2023-02-28T15:21:36;8.00;;;3.50;;
19965;SDS011;10144;50.874;4.762;2023-02-28T15:24:08;6.17;;;3.43;;
19965;SDS011;10144;50.874;4.762;2023-02-28T15:26:45;6.33;;;3.30;;
19965;SDS011;10144;50.874;4.762;2023-02-28T15:29:14;4.77;;;2.20;;
19965;SDS011;10144;50.874;4.762;2023-02-28T15:31:46;7.03;;;3.67;;
19965;SDS011;10144;50.874;4.762;2023-02-28T15:34:18;7.43;;;3.70;;
19965;SDS011;10144;50.874;4.762;2023-02-28T15:36:46;10.67;;;4.10;;
19965;SDS011;10144;50.874;4.762;2023-02-28T15:39:19;6.17;;;3.57;;
19965;SDS011;10144;50.874;4.762;2023-02-28T15:41:49;4.50;;;2.27;;
19965;SDS011;10144;50.874;4.762;2023-02-28T15:47:00;5.33;;;2.53;;
19965;SDS011;10144;50.874;4.762;2023-02-28T15:49:40;6.87;;;3.33;;
19965;SDS011;10144;50.874;4.762;2023-02-28T15:52:13;8.37;;;3.77;;
19965;SDS011;10144;50.874;4.762;2023-02-28T15:54:53;9.87;;;3.63;;
19965;SDS011;10144;50.874;4.762;2023-02-28T15:57:20;6.07;;;2.90;;
19965;SDS011;10144;50.874;4.762;2023-02-28T15:59:50;5.83;;;3.37;;
19965;SDS011;10144;50.874;4.762;2023-02-28T16:02:21;7.80;;;3.30;;
19965;SDS011;10144;50.874;4.762;2023-02-28T16:07:35;9.83;;;3.80;;
19965;SDS011;10144;50.874;4.762;2023-02-28T16:10:03;10.00;;;4.20;;
19965;SDS011;10144;50.874;4.762;2023-02-28T16:12:30;9.13;;;3.20;;
19965;SDS011;10144;50.874;4.762;2023-02-28T16:14:58;7.97;;;3.23;;
19965;SDS011;10144;50.874;4.762;2023-02-28T16:17:29;10.03;;;5.67;;
19965;SDS011;10144;50.874;4.762;2023-02-28T16:19:57;6.70;;;2.97;;
19965;SDS011;10144;50.874;4.762;2023-02-28T16:22:23;6.20;;;3.30;;
19965;SDS011;10144;50.874;4.762;2023-02-28T16:24:49;6.17;;;2.87;;
19965;SDS011;10144;50.874;4.762;2023-02-28T16:27:18;7.43;;;3.27;;
19965;SDS011;10144;50.874;4.762;2023-02-28T16:29:47;9.17;;;3.17;;
19965;SDS011;10144;50.874;4.762;2023-02-28T16:32:14;6.17;;;3.20;;
19965;SDS011;10144;50.874;4.762;2023-02-28T16:34:42;8.23;;;3.47;;
19965;SDS011;10144;50.874;4.762;2023-02-28T16:37:12;6.73;;;3.10;;
19965;SDS011;10144;50.874;4.762;2023-02-28T16:39:39;10.90;;;3.70;;
19965;SDS011;10144;50.874;4.762;2023-02-28T16:42:05;7.23;;;3.40;;
19965;SDS011;10144;50.874;4.762;2023-02-28T16:44:33;6.57;;;3.30;;
19965;SDS011;10144;50.874;4.762;2023-02-28T16:47:00;7.33;;;3.50;;
19965;SDS011;10144;50.874;4.762;2023-02-28T16:49:26;7.43;;;3.10;;
19965;SDS011;10144;50.874;4.762;2023-02-28T16:51:52;6.70;;;3.57;;
19965;SDS011;10144;50.874;4.762;2023-02-28T16:54:18;9.13;;;3.40;;
19965;SDS011;10144;50.874;4.762;2023-02-28T16:56:44;9.67;;;3.67;;
19965;SDS011;10144;50.874;4.762;2023-02-28T16:59:11;6.63;;;3.60;;
19965;SDS011;10144;50.874;4.762;2023-02-28T17:01:38;9.63;;;3.50;;
19965;SDS011;10144;50.874;4.762;2023-02-28T17:04:04;6.77;;;3.50;;
19965;SDS011;10144;50.874;4.762;2023-02-28T17:06:32;8.57;;;3.23;;
19965;SDS011;10144;50.874;4.762;2023-02-28T17:08:58;9.37;;;3.47;;
19965;SDS011;10144;50.874;4.762;2023-02-28T17:11:24;9.47;;;3.57;;
19965;SDS011;10144;50.874;4.762;2023-02-28T17:13:50;6.43;;;2.90;;
19965;SDS011;10144;50.874;4.762;2023-02-28T17:18:47;7.47;;;3.50;;
19965;SDS011;10144;50.874;4.762;2023-02-28T17:21:14;8.13;;;3.20;;
19965;SDS011;10144;50.874;4.762;2023-02-28T17:23:41;7.80;;;3.63;;
19965;SDS011;10144;50.874;4.762;2023-02-28T17:26:09;7.17;;;3.40;;
19965;SDS011;10144;50.874;4.762;2023-02-28T17:28:38;6.90;;;3.77;;
19965;SDS011;10144;50.874;4.762;2023-02-28T17:31:04;6.13;;;3.13;;
19965;SDS011;10144;50.874;4.762;2023-02-28T17:33:30;6.83;;;3.30;;
19965;SDS011;10144;50.874;4.762;2023-02-28T17:35:55;5.77;;;3.50;;
19965;SDS011;10144;50.874;4.762;2023-02-28T17:38:21;9.00;;;3.93;;
19965;SDS011;10144;50.874;4.762;2023-02-28T17:40:47;10.03;;;4.33;;
19965;SDS011;10144;50.874;4.762;2023-02-28T17:43:13;11.60;;;5.07;;
19965;SDS011;10144;50.874;4.762;2023-02-28T17:45:39;8.30;;;4.27;;
19965;SDS011;10144;50.874;4.762;2023-02-28T17:48:06;14.43;;;6.30;;
19965;SDS011;10144;50.874;4.762;2023-02-28T17:50:33;8.00;;;4.17;;
19965;SDS011;10144;50.874;4.762;2023-02-28T17:52:59;18.67;;;6.87;;
19965;SDS011;10144;50.874;4.762;2023-02-28T17:55:25;16.73;;;6.90;;
19965;SDS011;10144;50.874;4.762;2023-02-28T17:57:51;31.87;;;11.40;;
19965;SDS011;10144;50.874;4.762;2023-02-28T18:00:16;10.50;;;4.83;;
19965;SDS011;10144;50.874;4.762;2023-02-28T18:02:45;11.50;;;5.10;;
19965;SDS011;10144;50.874;4.762;2023-02-28T18:05:10;16.67;;;7.40;;
19965;SDS011;10144;50.874;4.762;2023-02-28T18:07:37;13.90;;;6.40;;
19965;SDS011;10144;50.874;4.762;2023-02-28T18:10:03;14.67;;;6.73;;
19965;SDS011;10144;50.874;4.762;2023-02-28T18:12:36;9.83;;;4.70;;
19965;SDS011;10144;50.874;4.762;2023-02-28T18:15:02;8.57;;;4.40;;
19965;SDS011;10144;50.874;4.762;2023-02-28T18:17:28;12.70;;;5.87;;
19965;SDS011;10144;50.874;4.762;2023-02-28T18:19:54;14.17;;;6.47;;
19965;SDS011;10144;50.874;4.762;2023-02-28T18:24:50;12.43;;;6.07;;
19965;SDS011;10144;50.874;4.762;2023-02-28T18:27:16;17.67;;;7.13;;
19965;SDS011;10144;50.874;4.762;2023-02-28T18:29:41;47.73;;;14.43;;
19965;SDS011;10144;50.874;4.762;2023-02-28T18:32:08;28.17;;;11.17;;
19965;SDS011;10144;50.874;4.762;2023-02-28T18:34:34;26.33;;;10.37;;
19965;SDS011;10144;50.874;4.762;2023-02-28T18:36:59;17.57;;;7.67;;
19965;SDS011;10144;50.874;4.762;2023-02-28T18:39:25;10.40;;;4.80;;
19965;SDS011;10144;50.874;4.762;2023-02-28T18:41:50;9.47;;;4.57;;
19965;SDS011;10144;50.874;4.762;2023-02-28T18:44:16;34.13;;;10.00;;
19965;SDS011;10144;50.874;4.762;2023-02-28T18:46:42;29.07;;;8.77;;
19965;SDS011;10144;50.874;4.762;2023-02-28T18:49:07;64.17;;;14.87;;
19965;SDS011;10144;50.874;4.762;2023-02-28T18:51:33;28.97;;;8.70;;
19965;SDS011;10144;50.874;4.762;2023-02-28T18:53:59;52.83;;;14.93;;
19965;SDS011;10144;50.874;4.762;2023-02-28T18:56:24;54.63;;;13.97;;
19965;SDS011;10144;50.874;4.762;2023-02-28T18:58:50;30.23;;;10.40;;
19965;SDS011;10144;50.874;4.762;2023-02-28T19:01:18;18.37;;;7.77;;
19965;SDS011;10144;50.874;4.762;2023-02-28T19:03:46;15.70;;;6.27;;
19965;SDS011;10144;50.874;4.762;2023-02-28T19:06:13;14.67;;;6.23;;